»·PEaware :: N145BE KSBD-KEMT

N145BE :: KSBD-KEMT

FLIGHT INFORMATION

Flight Status: Arrived
Operator: Privately registered:
United States
More flights under this callsign
Pilot: Santiago S. (22950)
Aircraft: BEECH AIRCRAFT BARON
(BE58)
More flights by this aircraft type
Origin: KSBD San Bernardino Intl
United States
Destination: KEMT El Monte
United States
More flights between these airports :: More routes between these airports
Route: +
File this flight plan on PilotEdge
Remarks: Sample flight plan
Altitude:
(Current/Filed)
4,000ft
Speed:
(Current/Filed)
170kts
Departed: 04-Feb-19 01:21 PM
Arrived: 04-Feb-19 01:58 PM
Distance/Time
Traveled:
40nm/0:37
Distance/Time
To Go:
Arrived

Flight Plot

Page will automatically refresh every two minutes.


Map Options




Map Legend


Flown Route
Filed Route
Departure Airport
Arrival Airport
Navaid (VOR, NDB)
Fix

Horizontal Profiles

Position Reports

Time Latitude Longitude Heading Altitude Ground
Speed
04-Feb-19 13:09 34.102076 -117.220442 147 1154ft 0kts
04-Feb-19 13:10 34.102076 -117.220442 147 1154ft 0kts
04-Feb-19 13:11 34.102076 -117.220442 147 1154ft 0kts
04-Feb-19 13:12 34.102076 -117.220442 147 1154ft 0kts
04-Feb-19 13:13 34.102076 -117.220442 147 1154ft 0kts
04-Feb-19 13:14 34.102076 -117.220442 147 1154ft 0kts
04-Feb-19 13:15 34.102076 -117.220442 147 1154ft 0kts
04-Feb-19 13:16 34.102076 -117.220442 147 1154ft 0kts
04-Feb-19 13:17 34.101940 -117.220349 154 1154ft 8kts
04-Feb-19 13:18 34.100765 -117.219841 163 1156ft 0kts
04-Feb-19 13:19 34.100765 -117.219841 163 1156ft 0kts
04-Feb-19 13:20 34.098962 -117.222671 250 1147ft 74kts
04-Feb-19 13:21 34.094349 -117.238573 253 1829ft 93kts
04-Feb-19 13:22 34.094096 -117.252373 271 2460ft 99kts
04-Feb-19 13:23 34.094414 -117.266996 270 3078ft 102kts
04-Feb-19 13:24 34.094566 -117.282651 270 3740ft 102kts
04-Feb-19 13:25 34.094598 -117.298388 269 4381ft 101kts
04-Feb-19 13:26 34.094561 -117.313649 269 4623ft 121kts
04-Feb-19 13:27 34.096510 -117.332074 303 4603ft 139kts
04-Feb-19 13:28 34.113199 -117.337595 15 4604ft 148kts
04-Feb-19 13:29 34.129703 -117.348025 287 4599ft 152kts
04-Feb-19 13:30 34.128131 -117.371886 251 4597ft 156kts
04-Feb-19 13:31 34.120514 -117.393850 244 4598ft 169kts
04-Feb-19 13:32 34.111869 -117.415557 244 4595ft 175kts
04-Feb-19 13:33 34.103028 -117.437710 244 4593ft 178kts
04-Feb-19 13:34 34.097809 -117.461819 265 4593ft 179kts
04-Feb-19 13:35 34.096852 -117.486903 268 4592ft 180kts
04-Feb-19 13:36 34.096313 -117.512874 268 4592ft 180kts
04-Feb-19 13:37 34.095801 -117.540904 268 4592ft 180kts
04-Feb-19 13:38 34.095365 -117.564999 268 4592ft 181kts
04-Feb-19 13:40 34.094930 -117.588849 268 4592ft 181kts
04-Feb-19 13:41 34.094476 -117.613414 268 4592ft 181kts
04-Feb-19 13:42 34.094042 -117.636696 268 4592ft 181kts
04-Feb-19 13:43 34.093590 -117.660682 268 4592ft 181kts
04-Feb-19 13:44 34.093097 -117.686574 268 4592ft 181kts
04-Feb-19 13:45 34.092539 -117.715565 268 4592ft 181kts
04-Feb-19 13:46 34.092006 -117.742882 268 4592ft 181kts
04-Feb-19 13:47 34.091421 -117.772546 268 4592ft 181kts
04-Feb-19 13:48 34.090766 -117.805353 268 4592ft 181kts
04-Feb-19 13:49 34.090130 -117.836810 268 4591ft 178kts
04-Feb-19 13:50 34.089536 -117.865731 268 4496ft 180kts
04-Feb-19 13:51 34.089173 -117.893656 271 4139ft 155kts
04-Feb-19 13:52 34.089604 -117.919337 271 3684ft 145kts
04-Feb-19 13:53 34.090428 -117.943477 276 3208ft 141kts
04-Feb-19 13:54 34.093066 -117.968674 278 2597ft 144kts
04-Feb-19 13:55 34.101225 -117.995954 283 1762ft 137kts
04-Feb-19 13:56 34.102549 -118.022909 242 729ft 119kts
04-Feb-19 13:57 34.087141 -118.034185 206 0ft 74kts
04-Feb-19 13:58 34.083107 -118.036189 117 0ft 5kts
04-Feb-19 13:58 34.083016 -118.036034 140 0ft 9kts
04-Feb-19 14:00 34.082733 -118.035695 26 0ft 0kts
04-Feb-19 14:01 34.082733 -118.035695 26 0ft 0kts

Navigation Log

Ident Type
Flight plan parsing failed, navigation log unavailable